Time;durP1;ratioP1;P1;durP2;ratioP2;P2;SDS_P1;SDS_P2;PMS_P1;PMS_P2;Temp;Humidity;BMP_temperature;BMP_pressure;BME280_temperature;BME280_humidity;BME280_pressure;Samples;Min_cycle;Max_cycle;Signal;HPM_P1;HPM_P2
2023/06/30 00:01:12;;;;;;;5.35;4.15;;;;;;;24.19;54.88;100288.53;4535618;28;21042;-66
2023/06/30 00:03:22;;;;;;;4.70;3.60;;;;;;;24.18;54.93;100290.59;4535933;28;20119;-66
2023/06/30 00:05:33;;;;;;;4.93;3.70;;;;;;;24.19;54.87;100294.31;4534997;28;20367;-67
2023/06/30 00:07:43;;;;;;;4.78;3.53;;;;;;;24.19;54.96;100292.28;4536440;28;20036;-66
2023/06/30 00:09:54;;;;;;;4.40;3.20;;;;;;;24.16;54.60;100286.47;4533875;28;20504;-67
2023/06/30 00:12:05;;;;;;;4.15;3.53;;;;;;;24.19;54.67;100302.97;4536082;28;20371;-66
2023/06/30 00:14:15;;;;;;;4.30;3.28;;;;;;;24.17;54.67;100291.84;4535546;28;20091;-66
2023/06/30 00:16:26;;;;;;;4.10;3.40;;;;;;;24.17;54.83;100274.53;4536534;28;20096;-66
2023/06/30 00:18:36;;;;;;;4.25;3.42;;;;;;;24.18;55.01;100276.16;4535607;28;20041;-67
2023/06/30 00:20:47;;;;;;;3.92;3.10;;;;;;;24.17;54.99;100276.56;4536549;28;20489;-66
2023/06/30 00:22:57;;;;;;;4.72;3.40;;;;;;;23.98;55.10;100256.63;4536016;28;20484;-67
2023/06/30 00:25:08;;;;;;;4.40;3.50;;;;;;;24.11;54.93;100279.00;4534743;28;20047;-67
2023/06/30 00:27:19;;;;;;;4.00;3.30;;;;;;;24.16;55.04;100274.94;4535491;28;20036;-67
2023/06/30 00:29:29;;;;;;;3.83;3.17;;;;;;;24.15;54.82;100270.41;4533940;28;20033;-67
2023/06/30 00:31:40;;;;;;;5.43;3.25;;;;;;;24.13;54.90;100261.31;4535868;28;20044;-67
2023/06/30 00:33:51;;;;;;;4.65;3.28;;;;;;;24.17;55.31;100274.53;4534111;28;20048;-66
2023/06/30 00:36:02;;;;;;;3.60;3.20;;;;;;;24.18;55.03;100275.38;4536500;28;20041;-66
2023/06/30 00:38:12;;;;;;;3.95;3.00;;;;;;;24.18;55.15;100272.47;4536182;28;20037;-66
2023/06/30 00:40:23;;;;;;;4.03;3.33;;;;;;;24.17;55.50;100270.81;4536384;28;20040;-67
2023/06/30 00:42:33;;;;;;;3.75;3.10;;;;;;;24.14;55.34;100263.78;4536260;28;20033;-67
2023/06/30 00:44:44;;;;;;;4.80;3.13;;;;;;;24.17;54.90;100256.38;4537067;28;20044;-66
2023/06/30 00:46:54;;;;;;;3.67;3.00;;;;;;;24.13;55.08;100252.66;4536653;28;20190;-66
2023/06/30 00:49:07;;;;;;;4.07;3.10;;;;;;;24.15;55.09;100261.75;4537828;28;20622;-66
2023/06/30 00:51:18;;;;;;;4.03;3.38;;;;;;;24.14;55.44;100258.03;4534942;28;20715;-67
2023/06/30 00:53:29;;;;;;;4.32;2.97;;;;;;;24.15;55.39;100262.56;4532746;28;20045;-67
2023/06/30 00:55:41;;;;;;;3.80;2.97;;;;;;;24.10;55.42;100247.69;4533852;28;20044;-66
2023/06/30 00:57:51;;;;;;;4.00;3.15;;;;;;;24.11;55.62;100253.06;4533648;28;20036;-67
2023/06/30 01:00:05;;;;;;;4.35;3.35;;;;;;;24.15;54.96;100258.88;4523997;28;20220;-66
2023/06/30 01:02:24;;;;;;;3.97;3.40;;;;;;;24.17;55.20;100267.91;4533705;28;20029;-66
2023/06/30 01:04:45;;;;;;;3.65;3.05;;;;;;;24.13;55.57;100256.38;4534508;28;20033;-67
2023/06/30 01:07:05;;;;;;;4.10;3.20;;;;;;;24.15;55.45;100253.91;4533894;28;20032;-67
2023/06/30 01:09:20;;;;;;;3.55;3.03;;;;;;;24.10;55.27;100251.38;4536245;28;21430;-66
2023/06/30 01:11:33;;;;;;;3.58;3.05;;;;;;;24.13;54.95;100247.72;4535748;28;20580;-66
2023/06/30 01:13:45;;;;;;;4.53;3.30;;;;;;;24.09;55.21;100252.63;4535741;28;20037;-67
2023/06/30 01:15:57;;;;;;;4.03;2.90;;;;;;;24.10;55.31;100245.63;4533311;28;20374;-66
2023/06/30 01:18:09;;;;;;;3.22;2.67;;;;;;;24.13;54.85;100256.38;4534100;28;20045;-67
2023/06/30 01:20:21;;;;;;;4.10;3.28;;;;;;;24.13;54.94;100247.72;4535180;28;20119;-67
2023/06/30 01:22:50;;;;;;;3.50;2.88;;;;;;;24.03;54.93;100231.16;4535031;28;20029;-67
2023/06/30 01:25:05;;;;;;;3.55;2.75;;;;;;;24.09;55.35;100248.91;4535320;28;20132;-66
2023/06/30 01:27:16;;;;;;;3.33;2.63;;;;;;;24.13;55.06;100252.66;4535437;28;20032;-66
2023/06/30 01:29:27;;;;;;;3.00;2.58;;;;;;;24.10;54.85;100251.38;4533251;28;20041;-66
2023/06/30 01:31:43;;;;;;;3.08;2.63;;;;;;;24.08;54.47;100248.09;4534440;28;20935;-67
2023/06/30 01:33:53;;;;;;;3.80;3.07;;;;;;;24.05;54.52;100240.25;4533208;28;20143;-66
2023/06/30 01:36:06;;;;;;;3.20;2.88;;;;;;;24.11;54.79;100247.28;4535105;28;20036;-67
2023/06/30 01:38:16;;;;;;;2.95;2.65;;;;;;;23.98;54.49;100230.69;4535819;28;20029;-67
2023/06/30 01:40:27;;;;;;;2.70;2.35;;;;;;;24.09;54.47;100243.97;4535763;28;20045;-66
2023/06/30 01:42:38;;;;;;;3.10;2.60;;;;;;;24.11;54.77;100244.41;4535620;28;20021;-66
2023/06/30 01:44:49;;;;;;;3.35;2.80;;;;;;;23.99;54.47;100220.84;4534764;28;20996;-67
2023/06/30 01:47:01;;;;;;;2.97;2.67;;;;;;;24.11;54.25;100241.53;4534684;28;20040;-66
2023/06/30 01:49:12;;;;;;;2.95;2.53;;;;;;;24.11;54.23;100247.28;4534138;28;20029;-66
2023/06/30 01:51:23;;;;;;;2.80;2.40;;;;;;;24.11;54.65;100246.47;4531900;28;20072;-67
2023/06/30 01:53:34;;;;;;;2.80;2.45;;;;;;;24.10;54.61;100254.28;4533414;28;20029;-67
2023/06/30 01:55:47;;;;;;;2.80;2.20;;;;;;;23.98;54.51;100231.53;4533098;28;20477;-67
2023/06/30 01:57:57;;;;;;;2.63;2.40;;;;;;;24.09;54.51;100252.63;4533955;28;20106;-66
2023/06/30 02:00:08;;;;;;;3.00;2.70;;;;;;;24.08;54.29;100250.97;4532757;28;20094;-67
2023/06/30 02:02:24;;;;;;;2.90;2.47;;;;;;;24.06;54.24;100250.53;4536248;28;20045;-67
2023/06/30 02:04:35;;;;;;;2.95;2.50;;;;;;;24.07;54.30;100252.19;4532291;28;20037;-66
2023/06/30 02:06:46;;;;;;;2.80;2.50;;;;;;;24.07;54.48;100252.19;4531555;28;20595;-67
2023/06/30 02:08:56;;;;;;;3.00;2.70;;;;;;;24.07;54.30;100242.72;4534666;28;20040;-67
2023/06/30 02:11:08;;;;;;;3.33;3.00;;;;;;;24.07;54.09;100240.66;4532984;28;20158;-67
2023/06/30 02:13:18;;;;;;;3.83;2.88;;;;;;;24.07;54.06;100236.97;4534327;28;20164;-66
2023/06/30 02:15:29;;;;;;;2.90;2.60;;;;;;;24.08;53.96;100242.34;4532984;28;20044;-66
2023/06/30 02:17:40;;;;;;;3.33;2.90;;;;;;;24.06;54.02;100241.91;4532468;28;20037;-66
2023/06/30 02:19:50;;;;;;;3.53;2.95;;;;;;;24.06;53.85;100247.66;4533542;28;20039;-66
2023/06/30 02:22:03;;;;;;;2.90;2.60;;;;;;;24.05;54.47;100243.13;4532344;28;20091;-67
2023/06/30 02:24:13;;;;;;;3.10;2.80;;;;;;;24.06;54.26;100243.94;4532203;28;20654;-67
2023/06/30 02:26:24;;;;;;;3.28;2.97;;;;;;;24.02;54.26;100235.28;4533060;28;20086;-67
2023/06/30 02:28:34;;;;;;;2.85;2.60;;;;;;;24.04;54.14;100246.41;4532108;28;20554;-66
2023/06/30 02:30:44;;;;;;;2.95;2.70;;;;;;;24.06;54.57;100241.06;4534090;28;20045;-65
2023/06/30 02:32:55;;;;;;;3.17;2.85;;;;;;;24.04;54.58;100247.22;4533636;28;20491;-65
2023/06/30 02:35:06;;;;;;;2.83;2.53;;;;;;;24.04;54.62;100246.41;4538964;28;20029;-65
2023/06/30 02:37:17;;;;;;;3.30;3.00;;;;;;;24.01;54.42;100248.03;4537231;28;20903;-64
2023/06/30 02:39:27;;;;;;;2.85;2.63;;;;;;;24.03;54.37;100257.13;4535916;28;20180;-65
2023/06/30 02:41:38;;;;;;;2.85;2.60;;;;;;;23.97;54.33;100240.56;4537960;28;20054;-64
2023/06/30 02:43:49;;;;;;;2.85;2.45;;;;;;;24.04;54.37;100253.00;4535469;28;20118;-64
2023/06/30 02:45:59;;;;;;;2.70;2.35;;;;;;;24.05;54.73;100259.59;4537291;28;20048;-65
2023/06/30 02:48:12;;;;;;;2.47;2.28;;;;;;;24.00;54.51;100257.06;4520644;28;20553;-64
2023/06/30 02:50:29;;;;;;;2.67;2.45;;;;;;;23.98;54.63;100248.81;4534019;28;20100;-64
2023/06/30 02:52:39;;;;;;;;;;;;;;;24.03;54.29;100257.13;4536218;28;20036;-63
2023/06/30 02:54:50;;;;;;;2.35;2.15;;;;;;;24.00;54.88;100252.16;4535257;28;19948;-63
2023/06/30 02:57:00;;;;;;;2.38;2.10;;;;;;;24.04;54.53;100263.72;4535703;28;20064;-63
2023/06/30 02:59:10;;;;;;;2.30;2.10;;;;;;;24.03;54.53;100257.13;4534991;28;20123;-63
2023/06/30 03:01:21;;;;;;;2.28;2.08;;;;;;;24.04;54.68;100258.75;4534300;28;20037;-64
2023/06/30 03:03:33;;;;;;;2.22;2.03;;;;;;;24.03;54.15;100250.50;4535289;28;20040;-64
2023/06/30 03:05:43;;;;;;;2.40;2.20;;;;;;;24.05;54.54;100256.72;4535296;28;20143;-63
2023/06/30 03:07:54;;;;;;;2.30;2.10;;;;;;;24.02;54.50;100261.22;4535611;28;20555;-64
2023/06/30 03:10:05;;;;;;;2.28;1.88;;;;;;;24.00;54.42;100257.06;4535986;28;20096;-64
2023/06/30 03:12:16;;;;;;;2.40;2.20;;;;;;;23.98;54.56;100265.28;4552440;28;20456;-64
2023/06/30 03:14:26;;;;;;;2.40;2.20;;;;;;;23.99;54.26;100259.13;4537980;28;20041;-64
2023/06/30 03:16:37;;;;;;;2.63;2.42;;;;;;;23.98;54.36;100251.72;4535064;28;20033;-63
2023/06/30 03:18:48;;;;;;;2.85;2.60;;;;;;;24.02;54.47;100258.34;4534842;28;20571;-64
2023/06/30 03:20:59;;;;;;;2.72;2.53;;;;;;;23.98;54.66;100257.47;4535246;28;20082;-64
2023/06/30 03:23:12;;;;;;;2.45;2.25;;;;;;;24.03;54.75;100256.28;4535099;28;20059;-64
2023/06/30 03:25:23;;;;;;;2.95;2.65;;;;;;;24.04;54.49;100267.41;4531958;28;20032;-64
2023/06/30 03:27:34;;;;;;;3.15;2.85;;;;;;;24.00;54.52;100262.84;4533687;28;20858;-64
2023/06/30 03:29:45;;;;;;;2.72;2.42;;;;;;;23.99;54.54;100273.53;4523166;28;20040;-64
2023/06/30 03:31:56;;;;;;;3.20;2.90;;;;;;;23.99;54.67;100281.38;4534234;28;20528;-64
2023/06/30 03:34:07;;;;;;;4.18;3.17;;;;;;;24.00;54.32;100280.97;4535142;28;20044;-64
2023/06/30 03:36:17;;;;;;;3.08;2.78;;;;;;;24.02;54.49;100284.31;4535525;28;20052;-64
2023/06/30 03:38:28;;;;;;;3.45;3.08;;;;;;;24.00;54.25;100283.84;4536677;28;20040;-64
2023/06/30 03:40:38;;;;;;;3.75;3.13;;;;;;;24.02;54.14;100292.09;4536602;28;20065;-64
2023/06/30 03:42:48;;;;;;;3.40;3.10;;;;;;;23.99;54.08;100285.06;4519921;28;20129;-64
2023/06/30 03:45:00;;;;;;;2.95;2.65;;;;;;;24.01;54.21;100287.56;4536841;28;20040;-64
2023/06/30 03:47:10;;;;;;;2.92;2.63;;;;;;;23.99;53.85;100285.06;4536876;28;20682;-63
2023/06/30 03:49:21;;;;;;;2.72;2.50;;;;;;;23.95;54.16;100281.31;4535068;28;20108;-63
2023/06/30 03:51:32;;;;;;;2.72;2.38;;;;;;;23.95;53.56;100281.31;4533730;28;20124;-64
2023/06/30 03:53:42;;;;;;;2.50;2.25;;;;;;;23.98;53.61;100279.69;4540580;28;20083;-63
2023/06/30 03:55:53;;;;;;;2.58;2.17;;;;;;;23.94;53.60;100275.94;4537593;28;20025;-63
2023/06/30 03:58:03;;;;;;;2.40;2.20;;;;;;;23.95;53.57;100284.19;4534067;28;20792;-63
2023/06/30 04:00:14;;;;;;;2.00;1.80;;;;;;;23.89;53.11;100274.25;4534984;28;20061;-63
2023/06/30 04:02:24;;;;;;;2.20;2.00;;;;;;;23.96;52.90;100282.94;4536625;28;20045;-64
2023/06/30 04:04:35;;;;;;;1.90;1.70;;;;;;;23.96;53.41;100285.84;4536645;28;21159;-63
2023/06/30 04:06:46;;;;;;;1.83;1.73;;;;;;;23.95;53.28;100286.22;4536073;28;20041;-64
2023/06/30 04:08:56;;;;;;;2.00;1.85;;;;;;;23.96;53.26;100285.03;4535651;28;20056;-63
2023/06/30 04:11:06;;;;;;;1.58;1.48;;;;;;;23.95;52.68;100289.97;4535528;28;20041;-64
2023/06/30 04:13:17;;;;;;;1.95;1.60;;;;;;;23.91;52.28;100286.22;4535216;28;20036;-64
2023/06/30 04:15:27;;;;;;;1.67;1.50;;;;;;;23.92;52.05;100284.16;4535758;28;20162;-63
2023/06/30 04:17:38;;;;;;;1.90;1.58;;;;;;;23.92;52.99;100290.75;4536319;28;20025;-64
2023/06/30 04:19:48;;;;;;;1.60;1.50;;;;;;;23.79;52.72;100274.97;4533212;28;20052;-64
2023/06/30 04:21:58;;;;;;;1.60;1.50;;;;;;;23.92;52.45;100301.44;4536646;28;20033;-64
2023/06/30 04:24:09;;;;;;;1.52;1.42;;;;;;;23.94;52.19;100305.59;4535792;28;20037;-64
2023/06/30 04:26:20;;;;;;;1.60;1.50;;;;;;;23.92;52.07;100302.28;4535908;28;20092;-64
2023/06/30 04:28:30;;;;;;;1.70;1.60;;;;;;;23.90;52.71;100292.34;4536049;28;20941;-64
2023/06/30 04:30:41;;;;;;;1.60;1.50;;;;;;;23.94;52.63;100307.66;4534555;28;20033;-64
2023/06/30 04:32:51;;;;;;;1.60;1.50;;;;;;;23.91;53.06;100299.81;4536610;28;20106;-64
2023/06/30 04:35:02;;;;;;;1.70;1.60;;;;;;;23.86;52.85;100291.50;4536810;28;20385;-64
2023/06/30 04:37:13;;;;;;;1.73;1.63;;;;;;;23.86;52.56;100289.47;4535474;28;20045;-64
2023/06/30 04:39:23;;;;;;;1.50;1.40;;;;;;;23.89;52.47;100300.19;4536756;28;20732;-63
2023/06/30 04:41:34;;;;;;;1.88;1.50;;;;;;;23.87;52.61;100304.69;4535236;28;20037;-63
2023/06/30 04:43:44;;;;;;;1.60;1.50;;;;;;;23.90;53.03;100301.00;4536295;28;20043;-63
2023/06/30 04:45:55;;;;;;;1.60;1.38;;;;;;;23.90;52.95;100310.50;4535853;28;20029;-64
2023/06/30 04:48:07;;;;;;;1.60;1.50;;;;;;;23.88;52.17;100312.13;4523436;28;20389;-63
2023/06/30 04:50:17;;;;;;;1.50;1.40;;;;;;;23.87;52.47;100308.41;4535472;28;20775;-64
2023/06/30 04:52:28;;;;;;;1.50;1.40;;;;;;;23.88;52.87;100315.00;4535838;28;20036;-64
2023/06/30 04:54:38;;;;;;;1.70;1.60;;;;;;;23.88;52.50;100321.56;4550620;28;20036;-63
2023/06/30 04:56:49;;;;;;;1.60;1.50;;;;;;;23.85;52.97;100321.56;4537683;28;20552;-63
2023/06/30 04:59:00;;;;;;;1.40;1.30;;;;;;;23.87;52.93;100331.47;4534977;28;20560;-63
2023/06/30 05:01:10;;;;;;;1.30;1.20;;;;;;;23.88;52.47;100333.09;4535189;28;20120;-63
2023/06/30 05:03:20;;;;;;;1.30;1.20;;;;;;;23.85;52.81;100330.22;4533382;28;20536;-64
2023/06/30 05:05:31;;;;;;;1.50;1.35;;;;;;;23.84;51.59;100322.78;4534818;28;20068;-64
2023/06/30 05:07:42;;;;;;;1.40;1.30;;;;;;;23.85;51.58;100331.03;4534937;28;20076;-64
2023/06/30 05:09:52;;;;;;;1.20;1.10;;;;;;;23.83;50.89;100315.38;4534859;28;20021;-64
2023/06/30 05:12:04;;;;;;;1.30;1.20;;;;;;;23.85;50.76;100328.16;4535452;28;20037;-64
2023/06/30 05:14:14;;;;;;;1.30;1.20;;;;;;;23.84;51.26;100319.88;4534700;28;20040;-64
2023/06/30 05:16:25;;;;;;;1.40;1.25;;;;;;;23.85;50.78;100325.25;4534598;28;20033;-64
2023/06/30 05:18:35;;;;;;;1.60;1.20;;;;;;;23.86;51.02;100321.16;4535176;28;20442;-64
2023/06/30 05:20:46;;;;;;;1.42;1.33;;;;;;;23.88;50.53;100336.00;4534264;28;20084;-65
2023/06/30 05:22:56;;;;;;;1.17;1.08;;;;;;;23.89;50.76;100336.84;4534804;28;20163;-64
2023/06/30 05:25:07;;;;;;;1.70;1.20;;;;;;;23.87;50.69;100331.47;4534678;28;20460;-64
2023/06/30 05:27:18;;;;;;;1.40;1.30;;;;;;;23.88;50.79;100326.53;4535921;28;20159;-63
2023/06/30 05:29:31;;;;;;;1.20;1.10;;;;;;;23.87;51.24;100333.50;4535757;28;20091;-64
2023/06/30 05:31:41;;;;;;;1.40;1.30;;;;;;;23.87;51.62;100333.50;4536188;28;20041;-64
2023/06/30 05:33:52;;;;;;;1.70;1.30;;;;;;;23.87;51.83;100328.59;4534168;28;20036;-65
2023/06/30 05:36:02;;;;;;;1.40;1.30;;;;;;;23.86;51.36;100326.94;4534505;28;20037;-64
2023/06/30 05:38:13;;;;;;;1.40;1.23;;;;;;;23.84;51.86;100322.78;4535595;28;20044;-64
2023/06/30 05:40:23;;;;;;;1.65;1.40;;;;;;;23.86;52.88;100331.88;4536636;28;20136;-64
2023/06/30 05:42:34;;;;;;;1.40;1.30;;;;;;;23.86;52.90;100326.94;4535989;28;20139;-64
2023/06/30 05:44:44;;;;;;;1.80;1.48;;;;;;;23.85;52.57;100322.38;4535954;28;20627;-64
2023/06/30 05:46:55;;;;;;;1.63;1.48;;;;;;;23.80;52.87;100322.72;4534104;28;20122;-64
2023/06/30 05:49:06;;;;;;;1.48;1.33;;;;;;;23.87;52.16;100334.34;4534438;28;20040;-64
2023/06/30 05:51:16;;;;;;;1.30;1.20;;;;;;;23.75;52.80;100316.50;4535988;28;20041;-64
2023/06/30 05:53:26;;;;;;;1.38;1.27;;;;;;;23.89;53.00;100339.72;4536631;28;20072;-63
2023/06/30 05:55:37;;;;;;;1.75;1.40;;;;;;;23.86;53.26;100328.97;4535544;28;20140;-63
2023/06/30 05:57:47;;;;;;;1.45;1.35;;;;;;;23.88;53.26;100336.00;4536381;28;20043;-63
2023/06/30 05:59:58;;;;;;;1.20;1.10;;;;;;;23.71;53.13;100310.69;4536223;28;20446;-64
2023/06/30 06:02:08;;;;;;;1.13;1.10;;;;;;;23.89;52.59;100340.56;4534415;28;20464;-64
2023/06/30 06:04:18;;;;;;;1.35;1.25;;;;;;;23.89;53.37;100334.78;4536421;28;20098;-66
2023/06/30 06:06:29;;;;;;;1.20;1.10;;;;;;;23.83;52.36;100332.66;4536236;28;20257;-65
2023/06/30 06:08:46;;;;;;;1.10;1.00;;;;;;;23.89;52.99;100331.91;4539333;28;20067;-66
2023/06/30 06:10:57;;;;;;;1.10;1.00;;;;;;;23.91;52.92;100335.22;4538465;28;20048;-66
2023/06/30 06:13:08;;;;;;;1.33;1.10;;;;;;;23.90;52.49;100338.47;4537771;28;20103;-65
2023/06/30 06:15:18;;;;;;;0.90;0.90;;;;;;;23.87;53.05;100328.59;4526656;28;20092;-65
2023/06/30 06:17:29;;;;;;;1.20;0.82;;;;;;;23.89;53.03;100328.19;4537011;28;20127;-65
2023/06/30 06:19:39;;;;;;;1.58;1.02;;;;;;;23.85;53.15;100331.03;4539398;28;20037;-65
2023/06/30 06:21:50;;;;;;;1.00;0.90;;;;;;;23.85;52.36;100339.66;4537134;28;20116;-65
2023/06/30 06:24:00;;;;;;;1.38;1.00;;;;;;;23.81;52.44;100335.94;4536988;28;20044;-65
2023/06/30 06:26:10;;;;;;;0.98;0.93;;;;;;;23.82;51.63;100348.31;4537283;28;20063;-65
2023/06/30 06:28:21;;;;;;;1.00;0.90;;;;;;;23.79;51.90;100338.38;4538205;28;20033;-66
2023/06/30 06:30:31;;;;;;;0.98;0.90;;;;;;;23.81;51.99;100347.47;4519489;28;20037;-65
2023/06/30 06:32:42;;;;;;;1.05;0.95;;;;;;;23.82;52.57;100349.13;4535362;28;20037;-65
2023/06/30 06:34:52;;;;;;;0.85;0.80;;;;;;;23.82;52.44;100343.34;4537385;28;20023;-66
2023/06/30 06:37:03;;;;;;;1.10;0.90;;;;;;;23.82;52.88;100342.53;4534612;28;20033;-66
2023/06/30 06:39:14;;;;;;;1.17;0.90;;;;;;;23.81;52.32;100341.69;4537705;28;20029;-66
2023/06/30 06:41:24;;;;;;;0.90;0.88;;;;;;;23.81;52.53;100344.59;4536239;28;20099;-66
2023/06/30 06:43:35;;;;;;;1.00;0.90;;;;;;;23.79;52.85;100347.03;4536198;28;20080;-66
2023/06/30 06:45:46;;;;;;;1.13;1.00;;;;;;;23.79;52.38;100349.91;4536282;28;20048;-66
2023/06/30 06:48:25;;;;;;;1.10;0.95;;;;;;;23.81;51.83;100344.59;4536870;28;20152;-66
2023/06/30 06:50:35;;;;;;;1.65;1.00;;;;;;;23.76;51.70;100344.09;4537225;28;20040;-66
2023/06/30 06:52:46;;;;;;;1.55;1.00;;;;;;;23.76;51.47;100347.81;4526074;28;20576;-66
2023/06/30 06:54:56;;;;;;;1.58;0.80;;;;;;;23.78;51.68;100348.25;4536072;28;20037;-67
2023/06/30 06:57:06;;;;;;;1.13;0.90;;;;;;;23.79;51.61;100355.66;4537489;28;20041;-66
2023/06/30 06:59:17;;;;;;;0.98;0.73;;;;;;;23.75;51.73;100346.16;4537281;28;20394;-66
2023/06/30 07:01:28;;;;;;;0.98;0.80;;;;;;;23.74;51.03;100347.38;4536757;28;20048;-66
2023/06/30 07:03:39;;;;;;;1.40;0.90;;;;;;;23.77;51.21;100346.59;4537668;28;20068;-67
2023/06/30 07:05:50;;;;;;;1.50;0.80;;;;;;;23.77;51.42;100340.00;4537153;28;20033;-65
2023/06/30 07:08:00;;;;;;;1.23;0.73;;;;;;;23.77;51.96;100345.78;4536798;28;20025;-65
2023/06/30 07:10:11;;;;;;;0.98;0.80;;;;;;;23.74;51.24;100338.72;4536156;28;20056;-64
2023/06/30 07:12:21;;;;;;;1.45;0.80;;;;;;;23.74;51.71;100344.50;4537423;28;20021;-66
2023/06/30 07:14:31;;;;;;;2.05;0.80;;;;;;;23.73;50.92;100347.78;4536821;28;20037;-65
2023/06/30 07:16:42;;;;;;;1.38;0.75;;;;;;;23.72;51.79;100349.84;4536428;28;20017;-64
2023/06/30 07:18:52;;;;;;;1.05;0.80;;;;;;;23.71;51.63;100353.94;4536992;28;20375;-65
2023/06/30 07:21:03;;;;;;;1.08;0.70;;;;;;;23.71;50.88;100353.09;4536093;28;20041;-64
2023/06/30 07:23:13;;;;;;;1.35;0.90;;;;;;;23.75;51.66;100351.94;4537406;28;20041;-64
2023/06/30 07:25:25;;;;;;;1.92;0.80;;;;;;;23.73;51.58;100347.78;4537746;28;20029;-64
2023/06/30 07:27:37;;;;;;;1.52;0.90;;;;;;;23.73;50.98;100348.63;4538037;28;20036;-65
2023/06/30 07:29:49;;;;;;;0.75;0.73;;;;;;;23.67;51.00;100339.47;4536584;28;20071;-66
2023/06/30 07:31:59;;;;;;;1.27;0.90;;;;;;;23.69;50.65;100344.03;4537189;28;20787;-65
2023/06/30 07:34:10;;;;;;;1.45;0.80;;;;;;;23.70;51.11;100345.69;4537034;28;20040;-65
2023/06/30 07:36:20;;;;;;;1.05;0.77;;;;;;;23.70;50.65;100351.44;4538005;28;20053;-64
2023/06/30 07:38:31;;;;;;;1.65;0.85;;;;;;;23.63;50.02;100341.50;4535307;28;20374;-64
2023/06/30 07:40:41;;;;;;;1.65;0.80;;;;;;;23.66;49.70;100354.28;4536354;28;20032;-64
2023/06/30 07:42:53;;;;;;;1.17;0.70;;;;;;;23.49;49.55;100314.56;4535470;28;20497;-64
2023/06/30 07:45:14;;;;;;;1.10;0.80;;;;;;;23.63;49.72;100349.31;4536562;28;20646;-64
2023/06/30 07:47:25;;;;;;;1.40;0.80;;;;;;;23.63;50.02;100348.50;4524957;28;20029;-64
2023/06/30 07:49:35;;;;;;;0.85;0.70;;;;;;;23.64;49.59;100351.78;4536789;28;20029;-64
2023/06/30 07:51:47;;;;;;;1.77;0.80;;;;;;;23.64;50.07;100356.75;4536738;28;20044;-64
2023/06/30 07:53:57;;;;;;;1.52;0.90;;;;;;;23.65;50.52;100361.28;4537209;28;20702;-64
2023/06/30 07:56:07;;;;;;;1.15;0.80;;;;;;;23.63;50.10;100365.78;4537580;28;20041;-64
2023/06/30 07:58:18;;;;;;;1.70;0.80;;;;;;;23.61;50.41;100369.88;4534167;28;20911;-64
2023/06/30 08:00:29;;;;;;;1.00;0.70;;;;;;;23.60;49.71;100364.50;4537003;28;20032;-64
2023/06/30 08:02:39;;;;;;;2.08;1.05;;;;;;;23.56;49.74;100352.94;4536327;28;20194;-64
2023/06/30 08:04:50;;;;;;;1.27;0.85;;;;;;;23.57;49.46;100362.41;4536436;28;20083;-64
2023/06/30 08:07:00;;;;;;;2.22;1.00;;;;;;;23.57;49.60;100371.06;4536598;28;20021;-64
2023/06/30 08:09:11;;;;;;;1.25;0.80;;;;;;;23.56;49.38;100369.41;4536377;28;20064;-64
2023/06/30 08:11:21;;;;;;;1.08;0.80;;;;;;;23.47;49.50;100354.47;4537471;28;20041;-64
2023/06/30 08:13:32;;;;;;;0.73;0.70;;;;;;;23.67;50.06;100370.38;4536504;28;20085;-64
2023/06/30 08:15:42;;;;;;;1.00;0.90;;;;;;;23.64;50.88;100371.16;4537504;28;20029;-65
2023/06/30 08:17:52;;;;;;;1.60;0.80;;;;;;;23.61;49.50;100360.38;4535617;28;20512;-64
2023/06/30 08:20:03;;;;;;;1.10;0.80;;;;;;;23.63;48.97;100375.25;4535542;28;20029;-64
2023/06/30 08:22:15;;;;;;;1.40;0.80;;;;;;;23.58;49.05;100366.94;4536581;28;20119;-64
2023/06/30 08:24:26;;;;;;;1.10;0.90;;;;;;;23.58;48.96;100372.69;4538526;28;20072;-64
2023/06/30 08:26:36;;;;;;;1.50;0.82;;;;;;;23.57;49.06;100374.78;4536224;28;20043;-64
2023/06/30 08:28:47;;;;;;;1.73;0.85;;;;;;;23.50;48.64;100368.06;4537106;28;20087;-64
2023/06/30 08:30:57;;;;;;;0.90;0.80;;;;;;;23.56;48.57;100372.28;4535052;28;20060;-64
2023/06/30 08:33:08;;;;;;;0.77;0.77;;;;;;;23.51;48.47;100366.88;4535644;28;20396;-64
2023/06/30 08:35:18;;;;;;;1.23;1.10;;;;;;;23.51;48.39;100373.47;4534730;28;20624;-64
2023/06/30 08:37:29;;;;;;;0.80;0.80;;;;;;;23.55;49.04;100380.09;4536364;28;20037;-64
2023/06/30 08:39:39;;;;;;;0.70;0.60;;;;;;;23.60;48.60;100374.00;4541341;28;20056;-64
2023/06/30 08:41:53;;;;;;;1.00;0.60;;;;;;;23.70;49.49;100383.16;4536237;28;20040;-64
2023/06/30 08:44:04;;;;;;;0.60;0.60;;;;;;;23.61;49.30;100389.19;4518134;28;20651;-66
2023/06/30 08:46:18;;;;;;;1.55;0.80;;;;;;;23.37;49.91;100392.63;4536741;28;20073;-66
2023/06/30 08:48:30;;;;;;;0.77;0.50;;;;;;;23.24;49.78;100391.16;4535797;28;20122;-66
2023/06/30 08:50:42;;;;;;;0.50;0.50;;;;;;;23.14;49.49;100392.69;4536515;28;20037;-70
2023/06/30 08:52:54;;;;;;;1.15;0.70;;;;;;;23.06;49.84;100387.19;4536156;28;20036;-70
2023/06/30 08:55:08;;;;;;;1.23;0.70;;;;;;;23.06;49.71;100390.06;4537111;28;20090;-71
2023/06/30 08:57:20;;;;;;;0.75;0.60;;;;;;;22.98;50.02;100383.38;4536543;28;20690;-71
2023/06/30 08:59:30;;;;;;;0.77;0.50;;;;;;;22.93;48.73;100380.03;4536150;28;20048;-70
2023/06/30 09:01:43;;;;;;;0.63;0.50;;;;;;;22.92;47.87;100379.19;4536217;28;20047;-65
2023/06/30 09:03:53;;;;;;;1.00;0.55;;;;;;;22.95;47.72;100389.09;4535708;28;20129;-65
2023/06/30 09:06:04;;;;;;;0.70;0.70;;;;;;;22.86;49.99;100389.38;4535929;28;20039;-64
2023/06/30 09:08:23;;;;;;;0.63;0.60;;;;;;;22.69;51.12;100386.22;4534258;28;20505;-66
2023/06/30 09:10:37;;;;;;;0.93;0.60;;;;;;;22.54;50.24;100387.19;4534815;28;20048;-66
2023/06/30 09:12:50;;;;;;;1.52;0.65;;;;;;;22.47;49.46;100381.31;4536086;28;20120;-65
2023/06/30 09:15:01;;;;;;;1.40;0.57;;;;;;;22.51;49.44;100373.56;4534766;28;20079;-66
2023/06/30 09:17:12;;;;;;;0.55;0.55;;;;;;;22.57;49.17;100374.91;4532821;28;20552;-66
2023/06/30 09:19:22;;;;;;;1.05;0.60;;;;;;;22.55;48.86;100386.00;4534720;28;20803;-66
2023/06/30 09:21:33;;;;;;;1.02;0.52;;;;;;;22.52;49.04;100367.44;4533822;28;20114;-66
2023/06/30 09:23:46;;;;;;;1.05;0.60;;;;;;;22.57;49.34;100363.41;4535491;28;20029;-65
2023/06/30 09:25:56;;;;;;;1.23;0.60;;;;;;;22.58;48.15;100356.47;4534475;28;20028;-65
2023/06/30 09:28:12;;;;;;;0.95;0.50;;;;;;;22.59;48.29;100364.69;4534460;28;20032;-75
2023/06/30 09:30:36;;;;;;;1.02;0.50;;;;;;;22.54;47.35;100358.44;4536030;28;20044;-75
2023/06/30 09:32:53;;;;;;;1.05;0.50;;;;;;;22.55;47.20;100363.00;4537645;28;20029;-76
2023/06/30 09:35:08;;;;;;;0.82;0.50;;;;;;;22.51;46.53;100359.19;4535631;28;20658;-69
2023/06/30 09:37:20;;;;;;;0.57;0.55;;;;;;;22.37;45.88;100338.81;4536434;28;20033;-70
2023/06/30 09:39:30;;;;;;;0.52;0.40;;;;;;;22.53;45.56;100365.41;4534847;28;20570;-65
2023/06/30 09:41:46;;;;;;;0.52;0.40;;;;;;;22.55;46.00;100363.78;4534467;28;20029;-65
2023/06/30 09:43:57;;;;;;;0.55;0.50;;;;;;;22.60;46.27;100363.47;4536012;28;20047;-67
2023/06/30 09:46:08;;;;;;;0.32;0.32;;;;;;;22.62;47.07;100365.97;4534839;28;20590;-64
2023/06/30 09:48:18;;;;;;;0.95;0.60;;;;;;;22.64;47.32;100369.28;4533422;28;20055;-65
2023/06/30 09:50:32;;;;;;;0.47;0.47;;;;;;;22.62;47.58;100371.72;4531803;28;20067;-65
2023/06/30 09:52:42;;;;;;;0.50;0.50;;;;;;;22.57;48.55;100361.38;4535350;28;20124;-64
2023/06/30 09:54:54;;;;;;;0.80;0.60;;;;;;;22.56;48.47;100365.47;4534842;28;20037;-66
2023/06/30 09:57:05;;;;;;;0.85;0.50;;;;;;;22.55;49.26;100366.66;4533615;28;20045;-64
2023/06/30 09:59:15;;;;;;;0.80;0.40;;;;;;;22.52;48.43;100355.94;4534045;28;20194;-64
2023/06/30 10:01:26;;;;;;;1.65;0.70;;;;;;;22.53;48.65;100362.53;4532703;28;20045;-65
2023/06/30 10:03:48;;;;;;;0.98;0.55;;;;;;;22.53;48.76;100365.41;4535715;28;20041;-62
2023/06/30 10:05:58;;;;;;;0.70;0.45;;;;;;;22.54;48.87;100355.56;4515792;28;20030;-61
2023/06/30 10:08:11;;;;;;;1.00;0.60;;;;;;;22.57;47.72;100357.66;4534492;28;20489;-63
2023/06/30 10:10:21;;;;;;;1.17;0.60;;;;;;;22.61;47.47;100355.69;4534066;28;20098;-64